createdAt,value
2023-05-16T00:01:48.819Z,99.90
2023-05-16T00:04:18.760Z,99.90
2023-05-16T00:06:46.992Z,99.90
2023-05-16T00:09:15.154Z,99.90
2023-05-16T00:15:44.303Z,99.90
2023-05-16T00:18:15.689Z,99.90
2023-05-16T00:20:45.430Z,99.90
2023-05-16T00:23:13.624Z,99.90
2023-05-16T00:25:41.828Z,99.90
2023-05-16T00:28:09.999Z,99.90
2023-05-16T00:30:38.354Z,99.90
2023-05-16T00:33:06.653Z,99.90
2023-05-16T00:35:34.865Z,99.90
2023-05-16T00:38:04.512Z,99.90
2023-05-16T00:40:32.964Z,99.90
2023-05-16T00:43:01.179Z,99.90
2023-05-16T00:45:29.562Z,99.90
2023-05-16T00:47:57.949Z,99.90
2023-05-16T00:50:26.374Z,99.90
2023-05-16T00:52:54.785Z,99.90
2023-05-16T00:55:24.583Z,99.90
2023-05-16T00:57:53.523Z,99.90
2023-05-16T01:00:21.808Z,99.90
2023-05-16T01:02:53.448Z,99.90
2023-05-16T01:05:22.250Z,99.90
2023-05-16T01:07:50.441Z,99.90
2023-05-16T01:10:18.698Z,99.90
2023-05-16T01:13:02.336Z,99.90
2023-05-16T01:15:34.311Z,99.90
2023-05-16T01:18:08.012Z,99.90
2023-05-16T01:20:42.596Z,99.90
2023-05-16T01:23:29.803Z,99.90
2023-05-16T01:26:09.905Z,99.90
2023-05-16T01:28:39.221Z,99.90
2023-05-16T01:31:07.593Z,99.90
2023-05-16T01:33:35.794Z,99.90
2023-05-16T01:36:12.436Z,99.90
2023-05-16T01:38:45.619Z,99.90
2023-05-16T01:41:22.101Z,99.90
2023-05-16T01:43:53.649Z,99.90
2023-05-16T01:46:29.937Z,99.90
2023-05-16T01:49:07.175Z,99.90
2023-05-16T01:51:38.690Z,99.90
2023-05-16T01:54:11.457Z,99.90
2023-05-16T01:56:46.294Z,99.90
2023-05-16T01:59:15.104Z,99.90
2023-05-16T02:01:43.546Z,99.90
2023-05-16T02:04:13.580Z,99.90
2023-05-16T02:06:43.711Z,99.90
2023-05-16T02:09:11.946Z,99.90
2023-05-16T02:11:43.598Z,99.90
2023-05-16T02:14:11.945Z,99.90
2023-05-16T02:16:40.249Z,99.90
2023-05-16T02:19:09.133Z,99.90
2023-05-16T02:21:37.359Z,99.90
2023-05-16T02:24:06.980Z,99.90
2023-05-16T02:26:35.125Z,99.90
2023-05-16T02:29:04.722Z,99.90
2023-05-16T02:31:34.861Z,99.90
2023-05-16T02:34:03.909Z,99.90
2023-05-16T02:36:32.112Z,99.90
2023-05-16T02:39:00.343Z,99.90
2023-05-16T02:41:28.535Z,99.90
2023-05-16T02:43:56.687Z,99.90
2023-05-16T02:46:30.726Z,99.90
2023-05-16T02:48:59.240Z,99.90
2023-05-16T02:51:29.264Z,99.90
2023-05-16T02:53:59.709Z,99.90
2023-05-16T02:56:28.244Z,99.90
2023-05-16T02:58:56.700Z,99.90
2023-05-16T03:01:25.006Z,99.90
2023-05-16T03:03:54.722Z,99.90
2023-05-16T03:06:23.117Z,99.90
2023-05-16T03:08:51.283Z,99.90
2023-05-16T03:11:20.930Z,99.90
2023-05-16T03:13:49.367Z,99.90
2023-05-16T03:16:17.724Z,99.90
2023-05-16T03:18:46.098Z,99.90
2023-05-16T03:21:15.893Z,99.90
2023-05-16T03:23:46.288Z,99.90
2023-05-16T03:26:14.498Z,99.90
2023-05-16T03:28:42.853Z,99.90
2023-05-16T03:31:11.117Z,99.90
2023-05-16T03:33:39.295Z,99.90
2023-05-16T03:36:07.993Z,99.90
2023-05-16T03:38:37.650Z,99.90
2023-05-16T03:41:06.029Z,99.90
2023-05-16T03:43:34.351Z,99.90
2023-05-16T03:46:02.790Z,99.90
2023-05-16T03:48:31.103Z,99.90
2023-05-16T03:50:59.298Z,99.90
2023-05-16T03:53:27.816Z,99.90
2023-05-16T03:55:57.370Z,99.90
2023-05-16T03:58:25.613Z,99.90
2023-05-16T04:00:53.765Z,99.90
2023-05-16T04:03:28.517Z,99.90
2023-05-16T04:05:57.311Z,99.90
2023-05-16T04:08:25.814Z,99.90
2023-05-16T04:10:54.076Z,99.90
2023-05-16T04:13:23.561Z,99.90
2023-05-16T04:15:51.801Z,99.90
2023-05-16T04:18:20.078Z,99.90
2023-05-16T04:20:48.680Z,99.90
2023-05-16T04:23:16.815Z,99.90
2023-05-16T04:25:45.101Z,99.90
2023-05-16T04:28:13.587Z,99.90
2023-05-16T04:30:43.151Z,99.90
2023-05-16T04:33:11.304Z,99.90
2023-05-16T04:35:39.896Z,99.90
2023-05-16T04:38:08.655Z,99.90
2023-05-16T04:40:36.899Z,99.90
2023-05-16T04:43:05.112Z,99.90
2023-05-16T04:45:33.863Z,99.90
2023-05-16T04:48:05.125Z,99.90
2023-05-16T04:50:33.487Z,99.90
2023-05-16T04:53:01.621Z,99.90
2023-05-16T04:55:29.984Z,99.90
2023-05-16T04:57:58.546Z,99.90
2023-05-16T05:00:27.227Z,99.90
2023-05-16T05:02:55.733Z,99.90
2023-05-16T05:05:25.486Z,99.90
2023-05-16T05:07:54.230Z,99.90
2023-05-16T05:10:22.532Z,99.90
2023-05-16T05:12:50.833Z,99.90
2023-05-16T05:15:19.385Z,99.90
2023-05-16T05:17:47.708Z,99.90
2023-05-16T05:20:16.013Z,99.90
2023-05-16T05:22:45.567Z,99.90
2023-05-16T05:25:14.012Z,99.90
2023-05-16T05:27:42.267Z,99.90
2023-05-16T05:30:11.420Z,69.10
2023-05-16T05:32:39.628Z,1.00
2023-05-16T05:35:08.734Z,1.00
2023-05-16T05:37:37.032Z,1.00
2023-05-16T05:40:09.106Z,1.00
2023-05-16T05:42:37.246Z,1.00
2023-05-16T05:45:07.628Z,1.00
2023-05-16T05:47:35.988Z,99.90
2023-05-16T05:50:05.716Z,99.90
2023-05-16T05:52:33.904Z,99.90
2023-05-16T05:55:02.095Z,99.90
2023-05-16T05:57:31.655Z,99.90
2023-05-16T05:59:59.911Z,99.90
2023-05-16T06:02:29.772Z,98.00
2023-05-16T06:04:58.269Z,99.90
2023-05-16T06:07:26.548Z,99.90
2023-05-16T06:09:54.770Z,99.90
2023-05-16T06:12:22.950Z,1.00
2023-05-16T06:14:52.521Z,1.00
2023-05-16T06:17:20.816Z,1.00
2023-05-16T06:19:49.088Z,99.90
2023-05-16T06:22:17.320Z,1.00
2023-05-16T06:24:45.518Z,4.20
2023-05-16T06:27:13.879Z,1.00
2023-05-16T06:29:42.138Z,1.00
2023-05-16T06:32:13.314Z,1.00
2023-05-16T06:34:41.779Z,73.80
2023-05-16T06:37:09.967Z,1.00
2023-05-16T06:39:38.685Z,99.90
2023-05-16T06:42:07.166Z,5.40
2023-05-16T06:44:35.350Z,1.00
2023-05-16T06:47:03.720Z,1.00
2023-05-16T06:49:33.379Z,1.00
2023-05-16T06:52:01.837Z,99.90
2023-05-16T06:54:30.029Z,99.90
2023-05-16T06:56:58.360Z,99.90
2023-05-16T06:59:28.156Z,99.90
2023-05-16T07:01:56.506Z,99.90
2023-05-16T07:04:24.729Z,99.90
2023-05-16T07:06:54.659Z,1.00
2023-05-16T07:09:23.143Z,99.90
2023-05-16T07:11:51.411Z,71.60
2023-05-16T07:14:19.626Z,99.90
2023-05-16T07:16:48.058Z,1.00
2023-05-16T07:19:16.416Z,1.00
2023-05-16T07:21:44.756Z,1.00
2023-05-16T07:24:14.468Z,99.90
2023-05-16T07:26:46.497Z,1.00
2023-05-16T07:29:15.208Z,1.00
2023-05-16T07:31:45.535Z,99.90
2023-05-16T07:34:17.255Z,99.90
2023-05-16T07:36:48.210Z,1.00
2023-05-16T07:39:18.078Z,1.00
2023-05-16T07:41:48.907Z,1.00
2023-05-16T07:44:18.578Z,99.90
2023-05-16T07:46:47.171Z,99.90
2023-05-16T07:49:18.281Z,1.00
2023-05-16T07:51:46.684Z,1.00
2023-05-16T07:54:17.651Z,1.00
2023-05-16T07:56:47.550Z,1.00
2023-05-16T07:59:16.303Z,1.00
2023-05-16T08:01:44.976Z,1.00
2023-05-16T08:04:13.315Z,1.00
2023-05-16T08:06:41.802Z,1.00
2023-05-16T08:09:16.447Z,1.00
2023-05-16T08:11:48.514Z,1.00
2023-05-16T08:14:19.817Z,1.00
2023-05-16T08:16:48.399Z,1.00
2023-05-16T08:19:19.190Z,15.70
2023-05-16T08:21:47.815Z,99.90
2023-05-16T08:24:19.317Z,99.90
2023-05-16T08:26:52.268Z,99.90
2023-05-16T08:29:20.980Z,99.90
2023-05-16T08:31:53.477Z,99.90
2023-05-16T08:34:23.634Z,1.00
2023-05-16T08:36:55.747Z,1.00
2023-05-16T08:39:26.728Z,1.00
2023-05-16T08:42:03.693Z,1.00
2023-05-16T08:44:36.621Z,1.00
2023-05-16T08:47:18.399Z,1.00
2023-05-16T08:49:53.700Z,99.90
2023-05-16T08:52:30.376Z,99.90
2023-05-16T08:55:10.119Z,99.90
2023-05-16T08:57:42.938Z,99.90
2023-05-16T09:00:15.930Z,99.90
2023-05-16T09:02:46.726Z,99.90
2023-05-16T09:05:16.807Z,99.90
2023-05-16T09:07:52.757Z,99.90
2023-05-16T09:10:24.508Z,99.90
2023-05-16T09:13:04.592Z,99.90
2023-05-16T09:15:34.740Z,99.90
2023-05-16T09:18:05.504Z,99.90
2023-05-16T09:20:34.303Z,99.90
2023-05-16T09:23:04.770Z,99.90
2023-05-16T09:25:33.278Z,99.90
2023-05-16T09:28:03.806Z,99.90
2023-05-16T09:30:34.441Z,99.90
2023-05-16T09:33:03.345Z,99.90
2023-05-16T09:38:04.186Z,99.90
2023-05-16T09:40:32.588Z,99.90
2023-05-16T09:43:07.033Z,99.90
2023-05-16T09:45:36.422Z,99.90
2023-05-16T09:48:07.247Z,99.90
2023-05-16T09:50:36.301Z,99.90
2023-05-16T09:53:05.594Z,99.90
2023-05-16T09:55:34.460Z,99.90
2023-05-16T09:58:02.626Z,99.90
2023-05-16T10:00:33.339Z,99.90
2023-05-16T10:03:05.107Z,99.90
2023-05-16T10:05:35.949Z,99.90
2023-05-16T10:08:05.242Z,99.90
2023-05-16T10:10:37.516Z,99.90
2023-05-16T10:13:08.470Z,99.90
2023-05-16T10:15:39.824Z,99.90
2023-05-16T10:18:12.204Z,99.90
2023-05-16T10:20:42.638Z,99.90
2023-05-16T10:23:14.625Z,99.90
2023-05-16T10:25:44.592Z,99.90
2023-05-16T10:28:14.019Z,99.90
2023-05-16T10:30:45.107Z,99.90
2023-05-16T10:33:15.085Z,99.90
2023-05-16T10:35:44.141Z,99.90
2023-05-16T10:38:14.648Z,99.90
2023-05-16T10:40:43.642Z,99.90
2023-05-16T10:43:11.946Z,99.90
2023-05-16T10:45:43.255Z,99.90
2023-05-16T10:48:15.485Z,99.90
2023-05-16T10:50:45.482Z,99.90
2023-05-16T10:53:19.747Z,99.90
2023-05-16T10:55:52.507Z,99.90
2023-05-16T10:58:25.392Z,99.90
2023-05-16T11:01:17.821Z,99.90
2023-05-16T11:04:13.384Z,99.90
2023-05-16T11:06:53.335Z,99.90
2023-05-16T11:09:27.860Z,99.90
2023-05-16T11:12:02.955Z,99.90
2023-05-16T11:14:38.444Z,99.90
2023-05-16T11:17:12.221Z,99.90
2023-05-16T11:19:45.886Z,99.90
2023-05-16T11:22:35.545Z,99.90
2023-05-16T11:25:05.881Z,99.90
2023-05-16T11:27:36.438Z,99.90
2023-05-16T11:30:14.199Z,99.90
2023-05-16T11:32:45.486Z,99.90
2023-05-16T11:35:15.418Z,99.90
2023-05-16T11:37:44.006Z,99.90
2023-05-16T11:40:14.731Z,99.90
2023-05-16T11:42:45.222Z,99.90
2023-05-16T11:45:16.662Z,99.90
2023-05-16T11:47:48.079Z,99.90
2023-05-16T11:50:18.396Z,96.70
2023-05-16T11:52:48.670Z,62.00
2023-05-16T11:55:25.082Z,40.40
2023-05-16T11:58:02.500Z,32.10
2023-05-16T12:00:30.730Z,29.30
2023-05-16T12:03:06.416Z,29.50
2023-05-16T12:05:35.723Z,28.80
2023-05-16T12:08:05.797Z,39.80
2023-05-16T12:10:35.263Z,75.10
2023-05-16T12:13:04.533Z,52.20
2023-05-16T12:15:33.113Z,51.40
2023-05-16T12:18:04.661Z,45.40
2023-05-16T12:20:33.524Z,29.90
2023-05-16T12:23:01.853Z,29.90
2023-05-16T12:25:36.449Z,22.70
2023-05-16T12:28:12.625Z,18.10
2023-05-16T12:30:43.712Z,1.00
2023-05-16T12:33:14.650Z,3.60
2023-05-16T12:35:45.001Z,1.00
2023-05-16T12:38:15.127Z,1.00
2023-05-16T12:40:47.534Z,1.00
2023-05-16T12:43:16.537Z,1.00
2023-05-16T12:45:51.757Z,1.00
2023-05-16T12:48:21.887Z,1.00
2023-05-16T12:50:53.512Z,1.00
2023-05-16T12:53:21.836Z,1.00
2023-05-16T12:55:50.278Z,3.50
2023-05-16T12:58:18.945Z,10.30
2023-05-16T13:00:47.315Z,11.80
2023-05-16T13:03:15.725Z,10.60
2023-05-16T13:05:48.089Z,20.50
2023-05-16T13:08:16.344Z,14.00
2023-05-16T13:10:46.690Z,17.70
2023-05-16T13:13:24.945Z,16.60
2023-05-16T13:15:53.763Z,16.30
2023-05-16T13:18:22.068Z,7.10
2023-05-16T13:20:53.032Z,5.40
2023-05-16T13:23:21.362Z,3.50
2023-05-16T13:25:49.777Z,4.20
2023-05-16T13:28:18.069Z,3.40
2023-05-16T13:30:46.336Z,6.60
2023-05-16T13:33:14.588Z,3.80
2023-05-16T13:35:42.925Z,1.00
2023-05-16T13:38:12.533Z,1.00
2023-05-16T13:40:43.131Z,1.00
2023-05-16T13:43:14.458Z,1.00
2023-05-16T13:45:44.276Z,1.00
2023-05-16T13:48:12.648Z,1.00
2023-05-16T13:50:44.227Z,1.00
2023-05-16T13:53:14.159Z,1.00
2023-05-16T13:55:42.590Z,1.00
2023-05-16T13:58:10.845Z,1.00
2023-05-16T14:00:45.322Z,1.00
2023-05-16T14:03:14.577Z,1.00
2023-05-16T14:05:42.991Z,1.00
2023-05-16T14:08:11.328Z,1.00
2023-05-16T14:10:41.084Z,1.00
2023-05-16T14:13:09.461Z,1.00
2023-05-16T14:15:37.685Z,1.00
2023-05-16T14:18:07.572Z,1.00
2023-05-16T14:20:35.903Z,1.00
2023-05-16T14:23:04.162Z,1.00
2023-05-16T14:25:32.515Z,1.00
2023-05-16T14:28:02.260Z,1.00
2023-05-16T14:30:31.650Z,1.00
2023-05-16T14:33:01.323Z,1.00
2023-05-16T14:35:29.928Z,1.00
2023-05-16T14:38:00.815Z,1.00
2023-05-16T14:40:29.048Z,1.00
2023-05-16T14:42:57.276Z,1.00
2023-05-16T14:45:27.382Z,1.00
2023-05-16T14:47:55.877Z,1.00
2023-05-16T14:50:24.254Z,1.00
2023-05-16T14:52:53.145Z,1.00
2023-05-16T14:55:22.698Z,1.00
2023-05-16T14:57:59.037Z,1.00
2023-05-16T15:00:30.526Z,1.00
2023-05-16T15:02:59.233Z,1.00
2023-05-16T15:05:29.335Z,1.00
2023-05-16T15:07:57.820Z,1.00
2023-05-16T15:10:26.486Z,1.00
2023-05-16T15:12:55.059Z,1.00
2023-05-16T15:15:23.291Z,1.00
2023-05-16T15:17:53.908Z,1.00
2023-05-16T15:20:22.849Z,1.00
2023-05-16T15:22:51.177Z,1.00
2023-05-16T15:25:19.562Z,1.00
2023-05-16T15:27:47.805Z,1.00
2023-05-16T15:30:16.421Z,1.00
2023-05-16T15:32:44.776Z,1.00
2023-05-16T15:35:14.571Z,1.00
2023-05-16T15:37:43.872Z,1.00
2023-05-16T15:40:13.325Z,1.00
2023-05-16T15:42:44.203Z,1.00
2023-05-16T15:45:12.984Z,1.00
2023-05-16T15:47:42.254Z,1.00
2023-05-16T15:50:11.477Z,1.00
2023-05-16T15:52:41.283Z,1.00
2023-05-16T15:55:11.989Z,1.00
2023-05-16T15:57:40.655Z,1.00
2023-05-16T16:00:10.065Z,1.00
2023-05-16T16:02:44.923Z,1.00
2023-05-16T16:05:13.228Z,1.00
2023-05-16T16:07:42.987Z,1.00
2023-05-16T16:10:13.972Z,1.00
2023-05-16T16:12:42.168Z,1.00
2023-05-16T16:15:11.970Z,1.00
2023-05-16T16:17:40.471Z,1.00
2023-05-16T16:20:09.775Z,1.00
2023-05-16T16:22:38.022Z,1.00
2023-05-16T16:25:08.837Z,1.00
2023-05-16T16:27:37.046Z,1.00
2023-05-16T16:30:06.222Z,1.00
2023-05-16T16:32:34.525Z,1.00
2023-05-16T16:35:05.268Z,1.00
2023-05-16T16:37:33.613Z,1.00
2023-05-16T16:40:01.893Z,1.00
2023-05-16T16:42:31.544Z,1.00
2023-05-16T16:44:59.751Z,1.00
2023-05-16T16:47:28.646Z,1.00
2023-05-16T16:49:57.090Z,5.60
2023-05-16T16:52:25.628Z,25.80
2023-05-16T16:54:53.905Z,99.90
2023-05-16T16:57:22.224Z,99.90
2023-05-16T16:59:51.935Z,1.00
2023-05-16T17:02:20.402Z,1.00
2023-05-16T17:04:48.653Z,39.00
2023-05-16T17:07:16.883Z,99.90
2023-05-16T17:09:45.229Z,99.90
2023-05-16T17:12:19.037Z,99.90
2023-05-16T17:14:48.015Z,1.00
2023-05-16T17:17:18.477Z,1.00
2023-05-16T17:19:48.143Z,1.00
2023-05-16T17:22:16.681Z,1.00
2023-05-16T17:24:45.426Z,1.00
2023-05-16T17:27:13.828Z,1.00
2023-05-16T17:29:42.613Z,1.00
2023-05-16T17:32:10.981Z,1.00
2023-05-16T17:34:40.766Z,1.00
2023-05-16T17:37:10.780Z,1.00
2023-05-16T17:39:40.361Z,99.90
2023-05-16T17:42:10.941Z,99.90
2023-05-16T17:44:39.635Z,99.90
2023-05-16T17:47:08.379Z,99.90
2023-05-16T17:49:36.674Z,1.00
2023-05-16T17:52:06.920Z,1.00
2023-05-16T17:54:35.155Z,56.00
2023-05-16T17:57:04.277Z,99.90
2023-05-16T17:59:32.592Z,99.90
2023-05-16T18:02:00.866Z,99.90
2023-05-16T18:04:29.086Z,1.00
2023-05-16T18:06:57.336Z,1.00
2023-05-16T18:09:26.944Z,1.00
2023-05-16T18:11:55.305Z,1.00
2023-05-16T18:14:23.763Z,1.00
2023-05-16T18:16:52.017Z,99.90
2023-05-16T18:19:20.758Z,99.90
2023-05-16T18:21:49.132Z,1.00
2023-05-16T18:24:17.530Z,1.00
2023-05-16T18:26:48.534Z,49.50
2023-05-16T18:29:16.931Z,99.90
2023-05-16T18:31:46.248Z,99.90
2023-05-16T18:34:14.546Z,99.90
2023-05-16T18:36:42.803Z,99.90
2023-05-16T18:39:11.358Z,99.90
2023-05-16T18:41:39.724Z,1.00
2023-05-16T18:44:09.452Z,1.00
2023-05-16T18:46:37.685Z,1.00
2023-05-16T18:49:05.911Z,1.00
2023-05-16T18:51:34.182Z,99.90
2023-05-16T18:54:04.048Z,1.00
2023-05-16T18:56:32.383Z,17.60
2023-05-16T18:59:00.646Z,99.90
2023-05-16T19:01:30.401Z,1.00
2023-05-16T19:03:58.826Z,1.00
2023-05-16T19:06:27.355Z,1.00
2023-05-16T19:08:55.683Z,1.00
2023-05-16T19:11:24.037Z,99.90
2023-05-16T19:13:52.269Z,99.90
2023-05-16T19:16:20.725Z,1.00
2023-05-16T19:18:50.590Z,99.90
2023-05-16T19:21:18.943Z,99.90
2023-05-16T19:23:47.265Z,99.90
2023-05-16T19:26:15.511Z,99.90
2023-05-16T19:28:43.842Z,99.90
2023-05-16T19:31:12.301Z,99.90
2023-05-16T19:33:40.826Z,99.90
2023-05-16T19:36:10.568Z,99.90
2023-05-16T19:38:38.876Z,83.40
2023-05-16T19:41:07.116Z,99.90
2023-05-16T19:43:35.541Z,99.90
2023-05-16T19:46:03.798Z,99.90
2023-05-16T19:48:32.136Z,99.90
2023-05-16T19:51:00.417Z,1.00
2023-05-16T19:53:30.151Z,1.00
2023-05-16T19:55:58.426Z,1.00
2023-05-16T19:58:27.164Z,1.00
2023-05-16T20:00:56.624Z,1.00
2023-05-16T20:03:26.686Z,99.90
2023-05-16T20:05:55.132Z,1.00
2023-05-16T20:08:25.737Z,1.00
2023-05-16T20:10:56.088Z,1.00
2023-05-16T20:13:25.916Z,1.00
2023-05-16T20:15:54.420Z,99.90
2023-05-16T20:18:22.921Z,99.90
2023-05-16T20:20:51.490Z,99.90
2023-05-16T20:23:20.033Z,99.90
2023-05-16T20:25:48.496Z,1.00
2023-05-16T20:28:25.719Z,1.00
2023-05-16T20:30:54.207Z,1.00
2023-05-16T20:33:22.829Z,1.00
2023-05-16T20:35:51.363Z,1.00
2023-05-16T20:38:19.772Z,1.00
2023-05-16T20:40:48.348Z,1.00
2023-05-16T20:43:16.731Z,1.00
2023-05-16T20:45:46.630Z,1.00
2023-05-16T20:48:15.185Z,1.00
2023-05-16T20:50:43.726Z,1.00
2023-05-16T20:53:12.196Z,90.00
2023-05-16T20:55:40.659Z,54.90
2023-05-16T20:58:09.200Z,99.90
2023-05-16T21:00:37.731Z,99.90
2023-05-16T21:03:09.862Z,99.90
2023-05-16T21:05:43.754Z,99.90
2023-05-16T21:08:12.140Z,99.90
2023-05-16T21:10:40.601Z,99.90
2023-05-16T21:13:09.068Z,99.90
2023-05-16T21:15:38.530Z,1.00
2023-05-16T21:18:08.479Z,1.00
2023-05-16T21:20:39.521Z,1.00
2023-05-16T21:23:07.960Z,1.00
2023-05-16T21:25:36.481Z,1.00
2023-05-16T21:28:04.877Z,1.00
2023-05-16T21:30:33.109Z,1.00
2023-05-16T21:33:01.526Z,1.00
2023-05-16T21:35:31.271Z,1.00
2023-05-16T21:37:59.584Z,1.00
2023-05-16T21:40:28.890Z,1.00
2023-05-16T21:42:57.128Z,1.00
2023-05-16T21:45:25.369Z,1.00
2023-05-16T21:47:53.739Z,1.00
2023-05-16T21:50:22.079Z,28.80
2023-05-16T21:52:51.693Z,84.70
2023-05-16T21:55:20.026Z,99.90
2023-05-16T21:57:48.402Z,99.90
2023-05-16T22:00:17.835Z,99.90
2023-05-16T22:02:46.241Z,99.90
2023-05-16T22:05:14.722Z,99.90
2023-05-16T22:07:43.430Z,99.90
2023-05-16T22:10:13.496Z,99.90
2023-05-16T22:12:42.000Z,99.90
2023-05-16T22:15:10.786Z,99.90
2023-05-16T22:17:39.347Z,99.90
2023-05-16T22:20:09.246Z,99.90
2023-05-16T22:22:37.578Z,99.90
2023-05-16T22:25:06.647Z,99.90
2023-05-16T22:27:36.224Z,89.90
2023-05-16T22:30:04.896Z,95.10
2023-05-16T22:32:33.262Z,99.90
2023-05-16T22:35:01.599Z,99.90
2023-05-16T22:37:29.915Z,99.90
2023-05-16T22:39:58.082Z,99.90
2023-05-16T22:42:26.342Z,99.90
2023-05-16T22:44:55.890Z,99.90
2023-05-16T22:47:25.401Z,99.90
2023-05-16T22:49:53.678Z,99.90
2023-05-16T22:52:22.694Z,99.90
2023-05-16T22:54:51.062Z,99.90
2023-05-16T22:57:19.376Z,99.90
2023-05-16T22:59:47.606Z,99.90
2023-05-16T23:02:17.222Z,99.90
2023-05-16T23:04:45.460Z,99.90
2023-05-16T23:07:13.788Z,99.90
2023-05-16T23:09:42.031Z,99.90
2023-05-16T23:12:10.518Z,99.90
2023-05-16T23:14:38.738Z,1.00
2023-05-16T23:17:07.133Z,1.00
2023-05-16T23:19:36.789Z,1.00
2023-05-16T23:22:06.235Z,1.00
2023-05-16T23:24:34.566Z,1.00
2023-05-16T23:27:02.800Z,1.00
2023-05-16T23:29:31.037Z,1.00
2023-05-16T23:31:59.306Z,1.00
2023-05-16T23:34:27.586Z,1.00
2023-05-16T23:36:57.239Z,1.00
2023-05-16T23:39:25.495Z,1.00
2023-05-16T23:41:53.661Z,1.00
2023-05-16T23:44:21.944Z,1.00
2023-05-16T23:46:50.074Z,1.00
2023-05-16T23:49:18.275Z,1.00
2023-05-16T23:51:57.295Z,1.00
2023-05-16T23:54:28.065Z,1.00
2023-05-16T23:56:56.276Z,1.00
2023-05-16T23:59:24.735Z,8.80
